Time;durP1;ratioP1;P1;durP2;ratioP2;P2;SDS_P1;SDS_P2;PMS_P1;PMS_P2;Temp;Humidity;BMP_temperature;BMP_pressure;BME280_temperature;BME280_humidity;BME280_pressure;Samples;Min_cycle;Max_cycle;Signal;HPM_P1;HPM_P2
2024/01/02 00:01:27;;;;;;;4.85;1.50;;;;;;;7.99;47.40;99914.69;4993190;28;20314;-75
2024/01/02 00:03:55;;;;;;;3.63;1.17;;;;;;;7.91;47.61;99905.38;5000280;28;20033;-75
2024/01/02 00:06:23;;;;;;;4.60;1.40;;;;;;;7.88;47.52;99897.47;5017567;28;20041;-75
2024/01/02 00:08:51;;;;;;;5.40;1.65;;;;;;;7.85;47.56;99886.84;5003146;28;20042;-75
2024/01/02 00:11:19;;;;;;;5.25;1.52;;;;;;;7.82;47.66;99876.25;5010619;28;20049;-75
2024/01/02 00:13:47;;;;;;;4.22;1.50;;;;;;;7.78;47.87;99872.06;4995854;28;20058;-76
2024/01/02 00:16:16;;;;;;;4.75;1.27;;;;;;;7.77;48.12;99867.63;5010045;28;20496;-75
2024/01/02 00:18:46;;;;;;;6.93;1.30;;;;;;;7.76;48.28;99865.06;5016629;28;20057;-76
2024/01/02 00:21:14;;;;;;;6.10;1.35;;;;;;;7.72;48.55;99850.84;5016486;28;20539;-76
2024/01/02 00:23:42;;;;;;;6.30;1.50;;;;;;;7.71;48.51;99848.25;4988807;28;20107;-76
2024/01/02 00:26:10;;;;;;;4.85;1.77;;;;;;;7.70;48.38;99841.09;4989619;28;20049;-75
2024/01/02 00:28:38;;;;;;;2.95;1.40;;;;;;;7.66;48.42;99832.34;4991241;28;20541;-75
2024/01/02 00:31:06;;;;;;;3.00;1.20;;;;;;;7.67;48.97;99827.78;5014876;28;20045;-75
2024/01/02 00:33:34;;;;;;;3.70;1.45;;;;;;;7.63;48.75;99819.00;5011538;28;20041;-76
2024/01/02 00:36:04;;;;;;;4.72;1.55;;;;;;;7.64;48.95;99819.88;5000116;28;20046;-75
2024/01/02 00:38:33;;;;;;;4.75;1.23;;;;;;;7.61;48.87;99807.38;5010338;28;20531;-75
2024/01/02 00:41:01;;;;;;;5.13;1.50;;;;;;;7.62;48.77;99808.25;4988850;23;20047;-75
2024/01/02 00:43:29;;;;;;;4.97;1.40;;;;;;;7.60;49.07;99804.84;4987821;28;20046;-75
2024/01/02 00:45:59;;;;;;;4.00;1.20;;;;;;;7.58;49.14;99805.81;4978456;28;20043;-75
2024/01/02 00:48:27;;;;;;;4.82;1.20;;;;;;;7.57;49.03;99789.63;4962588;28;20060;-75
2024/01/02 00:50:55;;;;;;;4.00;1.40;;;;;;;7.55;49.13;99784.31;4957710;28;20506;-76
2024/01/02 00:53:25;;;;;;;3.42;1.10;;;;;;;7.55;49.54;99784.31;4975111;28;20034;-75
2024/01/02 00:55:53;;;;;;;3.10;1.10;;;;;;;7.51;49.31;99766.56;4962287;28;20050;-75
2024/01/02 00:58:21;;;;;;;3.47;1.42;;;;;;;7.49;49.41;99774.00;4956773;28;20050;-75
2024/01/02 01:00:52;;;;;;;3.25;1.30;;;;;;;7.49;49.48;99764.97;4952510;28;20487;-75
2024/01/02 01:03:21;;;;;;;3.97;1.58;;;;;;;7.45;49.82;99744.47;4946727;28;20441;-75
2024/01/02 01:05:49;;;;;;;3.53;1.10;;;;;;;7.44;50.16;99753.63;4973930;28;20047;-75
2024/01/02 01:08:17;;;;;;;2.70;1.25;;;;;;;7.42;49.91;99740.19;4970600;28;20042;-76
2024/01/02 01:10:46;;;;;;;2.97;1.20;;;;;;;7.42;50.07;99729.28;4952829;28;20117;-75
2024/01/02 01:13:15;;;;;;;2.30;0.93;;;;;;;7.40;50.18;99711.38;4980883;28;20138;-75
2024/01/02 01:15:43;;;;;;;2.78;1.25;;;;;;;7.38;50.15;99700.63;4955485;28;20137;-75
2024/01/02 01:18:11;;;;;;;3.63;1.08;;;;;;;7.36;50.22;99691.72;4958439;28;20053;-76
2024/01/02 01:20:39;;;;;;;3.38;1.20;;;;;;;7.34;50.27;99669.25;4960219;28;20042;-75
2024/01/02 01:23:07;;;;;;;4.15;1.20;;;;;;;7.33;50.59;99675.69;4959987;28;20352;-75
2024/01/02 01:25:36;;;;;;;2.70;1.10;;;;;;;7.31;50.21;99668.69;4975472;28;20101;-74
2024/01/02 01:28:05;;;;;;;3.75;1.10;;;;;;;7.30;50.63;99662.38;4956500;28;20585;-75
2024/01/02 01:30:33;;;;;;;2.45;1.00;;;;;;;7.27;50.42;99657.19;4964172;28;20043;-75
2024/01/02 01:33:01;;;;;;;2.25;1.25;;;;;;;7.26;50.52;99638.31;4977501;28;20081;-75
2024/01/02 01:35:29;;;;;;;2.22;1.00;;;;;;;7.26;50.59;99641.03;4982332;28;20133;-75
2024/01/02 01:37:57;;;;;;;2.08;0.85;;;;;;;7.24;50.90;99622.13;4976835;28;20046;-75
2024/01/02 01:40:25;;;;;;;2.67;0.93;;;;;;;7.24;50.92;99624.00;4969308;28;20125;-77
2024/01/02 01:42:53;;;;;;;3.45;1.13;;;;;;;7.21;51.11;99625.13;4981122;28;20106;-75
2024/01/02 01:45:24;;;;;;;2.22;0.98;;;;;;;7.22;51.22;99606.94;4969061;28;20035;-75
2024/01/02 01:47:52;;;;;;;3.30;0.90;;;;;;;7.20;51.08;99607.06;4952375;28;20071;-75
2024/01/02 01:50:22;;;;;;;2.10;0.82;;;;;;;7.18;51.23;99588.19;4967349;28;20047;-76
2024/01/02 01:52:50;;;;;;;5.00;1.10;;;;;;;7.18;51.30;99581.91;4949896;28;20387;-75
2024/01/02 01:55:20;;;;;;;2.38;0.95;;;;;;;7.16;51.39;99578.44;4980382;28;20034;-75
2024/01/02 01:57:48;;;;;;;1.90;0.90;;;;;;;7.16;51.38;99573.00;4976704;28;20046;-75
2024/01/02 02:00:16;;;;;;;3.45;1.08;;;;;;;7.13;51.31;99565.13;4962826;28;20038;-75
2024/01/02 02:02:45;;;;;;;3.22;1.00;;;;;;;7.12;51.74;99549.78;4953199;28;20525;-75
2024/01/02 02:05:13;;;;;;;2.42;1.00;;;;;;;7.10;51.69;99544.53;4962900;28;20391;-75
2024/01/02 02:07:42;;;;;;;4.40;1.20;;;;;;;7.09;51.64;99552.81;4951516;28;20043;-75
2024/01/02 02:10:11;;;;;;;3.67;1.02;;;;;;;7.06;51.92;99534.91;4973751;28;20041;-75
2024/01/02 02:12:39;;;;;;;3.47;1.20;;;;;;;7.07;51.90;99535.78;4971894;28;20058;-76
2024/01/02 02:15:08;;;;;;;3.10;1.08;;;;;;;7.06;51.64;99534.91;4955200;28;20469;-76
2024/01/02 02:17:46;;;;;;;3.95;1.42;;;;;;;7.05;52.02;99518.72;4956446;28;20039;-76
2024/01/02 02:20:14;;;;;;;4.47;1.40;;;;;;;7.03;51.83;99509.84;4965219;28;20061;-76
2024/01/02 02:22:49;;;;;;;3.40;1.20;;;;;;;7.04;52.93;99482.50;4969881;28;20042;-75
2024/01/02 02:25:18;;;;;;;3.72;1.40;;;;;;;7.01;51.92;99466.50;4972891;28;20042;-77
2024/01/02 02:27:47;;;;;;;4.50;1.95;;;;;;;7.00;51.94;99459.34;4951046;28;20134;-75
2024/01/02 02:30:15;;;;;;;4.47;1.77;;;;;;;6.98;52.14;99444.16;4978988;28;20101;-77
2024/01/02 02:32:43;;;;;;;3.20;1.73;;;;;;;6.97;52.14;99418.81;4952675;28;20043;-76
2024/01/02 02:35:11;;;;;;;4.43;2.20;;;;;;;6.97;52.18;99420.69;4980973;28;20043;-75
2024/01/02 02:37:39;;;;;;;4.18;2.10;;;;;;;6.96;52.30;99405.34;4977469;28;20050;-76
2024/01/02 02:40:10;;;;;;;3.00;1.55;;;;;;;6.96;53.09;99394.47;4958381;28;20062;-75
2024/01/02 02:42:38;;;;;;;4.05;1.90;;;;;;;6.95;52.29;99385.47;4974733;28;20138;-75
2024/01/02 02:45:07;;;;;;;3.05;1.40;;;;;;;6.95;52.57;99381.88;4972609;28;20326;-76
2024/01/02 02:47:35;;;;;;;4.93;1.75;;;;;;;6.94;52.56;99382.91;4959297;28;20090;-76
2024/01/02 02:50:05;;;;;;;2.80;1.30;;;;;;;6.93;52.75;99370.31;4980129;28;20046;-76
2024/01/02 02:52:33;;;;;;;2.25;1.00;;;;;;;6.90;52.95;99366.03;4964049;28;20054;-75
2024/01/02 02:55:01;;;;;;;2.10;1.15;;;;;;;6.90;52.67;99341.53;4964337;28;20042;-76
2024/01/02 02:57:31;;;;;;;2.25;1.08;;;;;;;6.91;52.76;99332.38;4960424;28;20145;-75
2024/01/02 02:59:58;;;;;;;2.80;1.23;;;;;;;6.87;52.98;99325.50;4957376;28;20506;-76
2024/01/02 03:02:31;;;;;;;2.42;1.17;;;;;;;6.86;53.16;99315.63;4961958;28;20451;-75
2024/01/02 03:04:59;;;;;;;2.58;1.10;;;;;;;6.85;52.97;99303.06;4955797;28;20162;-76
2024/01/02 03:07:27;;;;;;;3.33;0.90;;;;;;;6.85;53.27;99313.09;4968390;28;20047;-75
2024/01/02 03:09:55;;;;;;;1.38;0.60;;;;;;;6.84;53.29;99305.94;4968802;28;20514;-76
2024/01/02 03:12:24;;;;;;;1.48;0.80;;;;;;;6.84;52.96;99297.78;4956952;28;20043;-75
2024/01/02 03:14:53;;;;;;;3.22;0.80;;;;;;;6.85;53.42;99308.50;4968636;28;20039;-76
2024/01/02 03:17:21;;;;;;;1.98;0.57;;;;;;;6.85;53.28;99313.09;4957452;28;20273;-76
2024/01/02 03:19:49;;;;;;;1.38;0.57;;;;;;;6.85;53.10;99299.50;4965381;28;20031;-75
2024/01/02 03:22:17;;;;;;;1.60;0.40;;;;;;;6.85;52.81;99294.06;4976263;28;20038;-77
2024/01/02 03:24:45;;;;;;;1.10;0.40;;;;;;;6.83;52.86;99264.28;4980174;28;20096;-76
2024/01/02 03:27:13;;;;;;;0.93;0.40;;;;;;;6.85;53.05;99275.03;4975115;28;20486;-76
2024/01/02 03:29:41;;;;;;;0.90;0.32;;;;;;;6.86;53.19;99252.25;4952720;28;20134;-75
2024/01/02 03:32:11;;;;;;;0.32;0.30;;;;;;;6.86;53.03;99247.66;4960136;28;20048;-76
2024/01/02 03:34:39;;;;;;;1.48;0.40;;;;;;;6.82;52.96;99219.91;4957005;28;20038;-75
2024/01/02 03:37:08;;;;;;;1.20;0.52;;;;;;;6.82;53.01;99216.34;4980029;28;20057;-75
2024/01/02 03:39:35;;;;;;;0.38;0.25;;;;;;;6.82;53.19;99214.47;4981515;28;20064;-75
2024/01/02 03:42:03;;;;;;;1.17;0.30;;;;;;;6.82;53.13;99191.88;4961525;28;20557;-75
2024/01/02 03:44:31;;;;;;;0.75;0.40;;;;;;;6.80;53.08;99178.41;4977389;28;20042;-78
2024/01/02 03:47:00;;;;;;;1.08;0.40;;;;;;;6.79;53.08;99175.84;4955191;28;20130;-75
2024/01/02 03:49:29;;;;;;;0.55;0.22;;;;;;;6.81;53.01;99168.41;4987666;28;20125;-75
2024/01/02 03:51:57;;;;;;;0.63;0.40;;;;;;;6.77;52.95;99159.72;4958937;28;20049;-76
2024/01/02 03:54:25;;;;;;;1.35;0.40;;;;;;;6.76;53.06;99171.59;4975662;28;20043;-76
2024/01/02 03:56:53;;;;;;;0.52;0.35;;;;;;;6.76;53.33;99158.00;4960927;28;20047;-76
2024/01/02 03:59:21;;;;;;;0.85;0.50;;;;;;;6.75;53.59;99147.25;4980812;28;20047;-76
2024/01/02 04:01:49;;;;;;;1.35;0.40;;;;;;;6.71;53.36;99138.50;4979873;28;20049;-75
2024/01/02 04:04:17;;;;;;;0.77;0.43;;;;;;;6.74;53.73;99121.94;4988241;28;20077;-76
2024/01/02 04:06:46;;;;;;;0.60;0.50;;;;;;;6.73;54.00;99128.34;4982445;28;20034;-75
2024/01/02 04:09:14;;;;;;;1.27;0.60;;;;;;;6.73;53.51;99113.91;4976007;28;20642;-75
2024/01/02 04:11:42;;;;;;;0.77;0.40;;;;;;;6.72;53.41;99104.03;4970341;28;20070;-75
2024/01/02 04:14:10;;;;;;;1.08;0.45;;;;;;;6.71;53.86;99102.31;4980557;28;20053;-75
2024/01/02 04:16:38;;;;;;;1.65;0.43;;;;;;;6.70;53.55;99085.13;4955444;28;20074;-75
2024/01/02 04:19:06;;;;;;;1.70;0.60;;;;;;;6.70;53.70;99057.09;4965216;28;20114;-75
2024/01/02 04:21:34;;;;;;;1.05;0.40;;;;;;;6.68;53.87;99061.84;4972340;28;20055;-76
2024/01/02 04:24:03;;;;;;;1.08;0.35;;;;;;;6.70;53.71;99060.66;4951706;28;20053;-76
2024/01/02 04:26:31;;;;;;;1.48;0.40;;;;;;;6.66;54.09;99066.59;4955170;28;20050;-76
2024/01/02 04:28:59;;;;;;;0.88;0.40;;;;;;;6.64;54.18;99041.41;4977699;28;20057;-75
2024/01/02 04:31:27;;;;;;;1.00;0.30;;;;;;;6.64;53.96;99042.28;4975299;28;20631;-76
2024/01/02 04:33:55;;;;;;;0.75;0.40;;;;;;;6.63;54.13;99048.72;4958002;28;20034;-76
2024/01/02 04:36:25;;;;;;;1.00;0.45;;;;;;;6.65;54.06;99056.72;4977758;28;20046;-76
2024/01/02 04:38:53;;;;;;;1.17;0.32;;;;;;;6.64;54.05;99044.97;4967818;28;20039;-75
2024/01/02 04:41:23;;;;;;;1.00;0.52;;;;;;;6.68;54.40;99048.25;4962154;28;20066;-75
2024/01/02 04:43:51;;;;;;;1.48;0.47;;;;;;;6.65;54.15;99038.53;4973246;28;20050;-76
2024/01/02 04:46:19;;;;;;;0.85;0.40;;;;;;;6.66;54.50;99036.69;4960419;28;20065;-75
2024/01/02 04:48:47;;;;;;;0.57;0.38;;;;;;;6.65;54.37;99022.22;4977578;28;20074;-76
2024/01/02 04:51:15;;;;;;;1.10;0.50;;;;;;;6.65;54.33;99027.66;4968243;28;20062;-76
2024/01/02 04:53:43;;;;;;;1.23;0.50;;;;;;;6.67;54.25;99028.38;4977760;28;20604;-76
2024/01/02 04:56:11;;;;;;;1.55;0.50;;;;;;;6.67;54.50;99033.81;4962925;28;20038;-77
2024/01/02 04:58:40;;;;;;;1.50;0.60;;;;;;;6.69;54.81;99033.66;4952103;28;20470;-75
2024/01/02 05:01:08;;;;;;;2.47;0.60;;;;;;;6.68;54.79;99023.81;4964555;28;20038;-75
2024/01/02 05:03:36;;;;;;;0.98;0.50;;;;;;;6.70;54.44;99016.31;4959471;28;20041;-76
2024/01/02 05:06:05;;;;;;;0.32;0.30;;;;;;;6.70;54.57;99024.47;4983107;28;20038;-75
2024/01/02 05:08:34;;;;;;;0.75;0.50;;;;;;;6.71;54.50;99001.72;4959278;28;20035;-76
2024/01/02 05:11:02;;;;;;;1.60;0.63;;;;;;;6.70;54.84;99003.59;4978238;28;20585;-75
2024/01/02 05:13:29;;;;;;;0.85;0.50;;;;;;;6.71;54.70;98999.84;4962335;28;20092;-76
2024/01/02 05:15:59;;;;;;;0.88;0.43;;;;;;;6.73;55.11;99016.88;4959888;28;20040;-76
2024/01/02 05:18:27;;;;;;;1.50;0.60;;;;;;;6.73;54.83;99005.16;4954060;28;20121;-76
2024/01/02 05:20:55;;;;;;;1.20;0.70;;;;;;;6.74;55.04;99002.31;4954464;28;20046;-75
2024/01/02 05:23:22;;;;;;;1.67;0.63;;;;;;;6.74;55.09;98999.59;4979459;28;20042;-76
2024/01/02 05:25:52;;;;;;;0.77;0.45;;;;;;;6.77;55.25;99009.31;4954778;28;20049;-75
2024/01/02 05:28:20;;;;;;;0.50;0.50;;;;;;;6.76;55.29;99003.03;4969179;28;20065;-76
2024/01/02 05:30:48;;;;;;;1.08;0.40;;;;;;;6.77;55.33;99006.59;4968168;28;20138;-75
2024/01/02 05:33:17;;;;;;;1.05;0.80;;;;;;;6.80;55.62;99003.53;4962645;28;20046;-76
2024/01/02 05:35:45;;;;;;;1.40;0.35;;;;;;;6.79;55.21;98986.38;4975975;28;20034;-76
2024/01/02 05:38:13;;;;;;;1.10;0.50;;;;;;;6.80;55.12;98993.53;4972832;28;20877;-76
2024/01/02 05:40:41;;;;;;;0.52;0.52;;;;;;;6.81;55.66;98997.09;4974416;28;20129;-76
2024/01/02 05:43:10;;;;;;;0.85;0.35;;;;;;;6.84;55.30;98990.50;4986120;28;20042;-75
2024/01/02 05:45:38;;;;;;;1.10;0.43;;;;;;;6.84;55.54;99010.41;4979133;28;20046;-75
2024/01/02 05:48:07;;;;;;;1.13;0.40;;;;;;;6.87;55.86;98992.91;4980036;28;20077;-76
2024/01/02 05:50:37;;;;;;;0.63;0.40;;;;;;;6.89;55.77;98993.59;4981528;28;20384;-76
2024/01/02 05:53:04;;;;;;;0.82;0.60;;;;;;;6.89;55.83;98985.44;4976895;28;20529;-77
2024/01/02 05:55:32;;;;;;;1.00;0.43;;;;;;;6.92;55.91;98990.59;4976009;28;20054;-76
2024/01/02 05:58:00;;;;;;;1.25;0.50;;;;;;;6.94;55.66;98991.28;4970867;28;20105;-76
2024/01/02 06:00:28;;;;;;;0.95;0.40;;;;;;;6.94;56.11;99000.28;4971743;28;20042;-76
2024/01/02 06:02:56;;;;;;;1.10;0.47;;;;;;;6.97;55.72;98993.69;4971978;28;20577;-76
2024/01/02 06:05:24;;;;;;;0.85;0.50;;;;;;;6.97;56.31;98991.81;4980545;28;20042;-76
2024/01/02 06:07:54;;;;;;;0.90;0.50;;;;;;;6.99;55.96;99000.69;4967564;28;20043;-75
2024/01/02 06:10:22;;;;;;;0.80;0.47;;;;;;;7.00;55.99;98983.34;4958279;28;20050;-76
2024/01/02 06:12:50;;;;;;;1.20;0.52;;;;;;;7.03;56.43;98980.28;4978980;28;20524;-76
2024/01/02 06:15:17;;;;;;;1.27;0.50;;;;;;;7.06;56.30;98969.09;4958335;28;20494;-77
2024/01/02 06:17:46;;;;;;;0.45;0.40;;;;;;;7.09;56.47;98973.38;4978335;28;20170;-76
2024/01/02 06:20:15;;;;;;;0.73;0.50;;;;;;;7.12;56.41;98981.22;4974297;28;20094;-76
2024/01/02 06:22:43;;;;;;;1.00;0.57;;;;;;;7.15;56.29;98975.47;4978902;28;20097;-76
2024/01/02 06:25:12;;;;;;;0.68;0.40;;;;;;;7.19;56.45;98983.13;4979852;28;20389;-78
2024/01/02 06:27:41;;;;;;;1.17;0.50;;;;;;;7.22;56.66;98983.84;4960149;28;20473;-77
2024/01/02 06:30:09;;;;;;;0.57;0.20;;;;;;;7.26;57.04;98974.38;4969956;28;20142;-77
2024/01/02 06:32:37;;;;;;;0.30;0.20;;;;;;;7.31;57.12;98977.44;4983043;28;20046;-79
2024/01/02 06:35:06;;;;;;;0.52;0.20;;;;;;;7.36;57.16;98983.25;4960321;28;20046;-79
2024/01/02 06:37:34;;;;;;;0.10;0.10;;;;;;;7.42;57.50;98988.09;4964704;28;20643;-77
2024/01/02 06:40:02;;;;;;;0.10;0.10;;;;;;;7.47;57.64;98969.41;4974940;28;20122;-79
2024/01/02 06:42:31;;;;;;;0.10;0.10;;;;;;;7.55;57.54;98983.91;4968780;28;20042;-79
2024/01/02 06:44:59;;;;;;;0.10;0.10;;;;;;;7.59;57.93;98987.19;4957792;28;20246;-78
2024/01/02 06:47:27;;;;;;;0.20;0.13;;;;;;;7.66;57.88;99003.72;4961072;28;20053;-79
2024/01/02 06:49:55;;;;;;;0.30;0.20;;;;;;;7.74;57.75;99010.06;4971944;28;20098;-77
2024/01/02 06:52:23;;;;;;;0.20;0.20;;;;;;;7.79;58.42;98999.53;4955797;28;20101;-77
2024/01/02 06:54:51;;;;;;;0.20;0.20;;;;;;;7.86;58.41;99005.19;4957341;28;20053;-75
2024/01/02 06:57:19;;;;;;;0.50;0.30;;;;;;;7.92;58.46;99018.19;4975469;28;20138;-76
2024/01/02 06:59:48;;;;;;;0.20;0.20;;;;;;;8.00;58.24;98990.97;4970137;28;20462;-77
2024/01/02 07:02:16;;;;;;;0.13;0.13;;;;;;;8.06;58.05;99000.34;4973496;28;20050;-76
2024/01/02 07:04:44;;;;;;;0.60;0.20;;;;;;;8.11;58.56;98996.09;4960905;28;20051;-76
2024/01/02 07:07:12;;;;;;;0.52;0.20;;;;;;;8.17;58.04;99008.28;4970361;28;20117;-75
2024/01/02 07:09:39;;;;;;;0.30;0.30;;;;;;;8.24;58.14;98995.69;4965527;28;20537;-76
2024/01/02 07:12:07;;;;;;;0.10;0.10;;;;;;;8.28;58.05;98997.91;4957432;28;20138;-75
2024/01/02 07:14:37;;;;;;;0.10;0.10;;;;;;;8.36;58.64;98985.34;4949404;28;20043;-77
2024/01/02 07:17:07;;;;;;;0.20;0.20;;;;;;;8.43;58.40;98991.81;4954219;28;20109;-76
2024/01/02 07:19:35;;;;;;;0.30;0.30;;;;;;;8.45;58.76;98992.50;4972157;28;20130;-76
2024/01/02 07:22:03;;;;;;;0.35;0.25;;;;;;;8.51;58.53;98981.78;4961173;28;20142;-76
2024/01/02 07:24:33;;;;;;;0.25;0.20;;;;;;;8.56;58.72;98979.44;4953471;28;20070;-76
2024/01/02 07:27:01;;;;;;;0.20;0.20;;;;;;;8.63;58.63;99009.59;4972306;28;20051;-76
2024/01/02 07:29:29;;;;;;;0.15;0.15;;;;;;;8.67;58.45;99011.00;4972848;28;20040;-77
2024/01/02 07:31:57;;;;;;;0.20;0.10;;;;;;;8.73;58.51;98993.97;4974388;28;20050;-77
2024/01/02 07:34:27;;;;;;;0.65;0.45;;;;;;;8.78;58.28;98994.28;4950571;28;20499;-74
2024/01/02 07:36:55;;;;;;;1.20;0.57;;;;;;;8.82;58.76;98994.81;4969909;28;20027;-76
2024/01/02 07:39:23;;;;;;;0.40;0.38;;;;;;;8.86;58.28;99005.22;4970224;28;20070;-76
2024/01/02 07:41:51;;;;;;;0.20;0.20;;;;;;;8.91;58.39;98999.28;4955001;28;20058;-76
2024/01/02 07:44:19;;;;;;;0.28;0.28;;;;;;;8.95;58.57;99008.81;4954277;28;20138;-75
2024/01/02 07:46:47;;;;;;;0.20;0.20;;;;;;;8.99;58.25;99013.78;4973466;28;20050;-76
2024/01/02 07:49:16;;;;;;;0.15;0.15;;;;;;;9.02;58.12;99018.88;4960895;28;20047;-75
2024/01/02 07:51:47;;;;;;;0.30;0.30;;;;;;;9.07;58.72;99024.69;4971988;28;20050;-76
2024/01/02 07:54:15;;;;;;;1.08;0.10;;;;;;;9.08;58.50;99020.91;4971846;28;20044;-76
2024/01/02 07:56:43;;;;;;;0.85;0.20;;;;;;;9.13;58.51;99022.31;4957888;28;20283;-76
2024/01/02 07:59:15;;;;;;;0.20;0.20;;;;;;;9.17;58.03;99029.09;4954010;28;20053;-75
2024/01/02 08:01:43;;;;;;;0.20;0.20;;;;;;;9.18;58.45;99034.41;4970263;28;20049;-75
2024/01/02 08:04:11;;;;;;;0.20;0.20;;;;;;;9.24;58.06;99038.34;4987094;28;20049;-76
2024/01/02 08:06:39;;;;;;;0.25;0.20;;;;;;;9.27;58.45;99052.50;4958749;28;20093;-77
2024/01/02 08:09:08;;;;;;;0.95;0.40;;;;;;;9.33;58.41;99053.72;4961805;28;20050;-76
2024/01/02 08:11:37;;;;;;;0.30;0.30;;;;;;;9.34;58.05;99055.38;4977289;28;20050;-76
2024/01/02 08:14:05;;;;;;;0.65;0.45;;;;;;;9.35;58.26;99051.63;4980841;28;20042;-76
2024/01/02 08:16:33;;;;;;;1.00;0.40;;;;;;;9.38;58.29;99037.66;4969838;28;20137;-76
2024/01/02 08:19:01;;;;;;;0.20;0.20;;;;;;;9.40;58.47;99049.31;4977370;28;20137;-76
2024/01/02 08:21:30;;;;;;;0.30;0.20;;;;;;;9.43;58.19;99059.88;4973727;28;20042;-77
2024/01/02 08:23:58;;;;;;;0.63;0.30;;;;;;;9.45;58.41;99066.88;4981038;28;20117;-77
2024/01/02 08:26:27;;;;;;;0.32;0.30;;;;;;;9.50;58.24;99068.22;4952548;28;20371;-77
2024/01/02 08:28:55;;;;;;;0.65;0.25;;;;;;;9.51;58.40;99064.47;4955808;28;20039;-76
2024/01/02 08:31:24;;;;;;;0.95;0.40;;;;;;;9.52;58.07;99072.50;4973598;28;20122;-76
2024/01/02 08:33:51;;;;;;;0.93;0.30;;;;;;;9.53;58.05;99071.47;4943544;28;20051;-76
2024/01/02 08:36:19;;;;;;;0.30;0.30;;;;;;;9.55;58.02;99072.16;4971000;28;20039;-76
2024/01/02 08:38:47;;;;;;;0.20;0.20;;;;;;;9.57;58.32;99082.91;4961140;28;20418;-76
2024/01/02 08:41:15;;;;;;;0.73;0.30;;;;;;;9.59;58.41;99078.13;4950683;28;20042;-76
2024/01/02 08:43:45;;;;;;;0.20;0.20;;;;;;;9.61;58.68;99084.28;4965494;28;20042;-76
2024/01/02 08:46:13;;;;;;;0.20;0.20;;;;;;;9.63;58.43;99079.50;4954943;28;20073;-76
2024/01/02 08:48:41;;;;;;;1.35;0.40;;;;;;;9.65;58.58;99077.47;4961371;28;20133;-77
2024/01/02 08:51:09;;;;;;;0.20;0.20;;;;;;;9.65;58.41;99075.59;4980819;28;20641;-75
2024/01/02 08:53:37;;;;;;;0.28;0.22;;;;;;;9.66;58.32;99077.25;4981892;28;20039;-76
2024/01/02 08:56:06;;;;;;;0.95;0.50;;;;;;;9.68;58.34;99080.69;4972404;28;20042;-76
2024/01/02 08:58:35;;;;;;;1.10;0.40;;;;;;;9.70;58.22;99088.72;4982586;28;20445;-76
2024/01/02 09:01:05;;;;;;;0.50;0.40;;;;;;;9.72;58.20;99082.06;4954370;28;20387;-76
2024/01/02 09:03:33;;;;;;;0.70;0.30;;;;;;;9.73;58.07;99088.38;4946773;28;20098;-76
2024/01/02 09:06:01;;;;;;;0.40;0.38;;;;;;;9.74;58.42;99090.91;4978183;28;20050;-76
2024/01/02 09:08:29;;;;;;;1.08;0.40;;;;;;;9.75;58.38;99089.03;4965985;28;20416;-76
2024/01/02 09:10:57;;;;;;;0.57;0.45;;;;;;;9.77;58.04;99087.84;4964151;28;20502;-76
2024/01/02 09:13:25;;;;;;;0.70;0.40;;;;;;;9.78;58.44;99089.56;4957937;28;20051;-76
2024/01/02 09:15:53;;;;;;;0.40;0.40;;;;;;;9.79;58.05;99083.06;4962472;28;20133;-76
2024/01/02 09:18:23;;;;;;;0.50;0.30;;;;;;;9.82;58.13;99096.38;4975777;28;20045;-76
2024/01/02 09:20:51;;;;;;;0.52;0.40;;;;;;;9.83;58.34;99083.56;4978045;28;20130;-75
2024/01/02 09:23:19;;;;;;;0.30;0.30;;;;;;;9.84;58.54;99091.59;4960457;28;20054;-76
2024/01/02 09:25:48;;;;;;;0.80;0.40;;;;;;;9.85;58.26;99078.78;4955237;28;20053;-76
2024/01/02 09:28:19;;;;;;;0.50;0.40;;;;;;;9.87;58.09;99079.47;4961002;28;20070;-76
2024/01/02 09:30:48;;;;;;;2.50;0.50;;;;;;;9.88;58.15;99080.31;4978260;28;20425;-76
2024/01/02 09:33:17;;;;;;;1.05;0.50;;;;;;;9.90;58.36;99081.00;4956112;28;20500;-76
2024/01/02 09:35:47;;;;;;;0.70;0.40;;;;;;;9.93;58.03;99086.13;4981902;28;20046;-75
2024/01/02 09:38:15;;;;;;;0.82;0.50;;;;;;;9.92;57.98;99077.06;4949110;28;20410;-76
2024/01/02 09:40:59;;;;;;;0.57;0.43;;;;;;;9.97;58.75;99082.03;4957413;28;20039;-76
2024/01/02 09:43:38;;;;;;;2.00;0.57;;;;;;;9.97;58.30;99080.16;4965520;28;20038;-76
2024/01/02 09:46:12;;;;;;;2.25;0.80;;;;;;;9.97;57.92;99076.56;4954112;28;20050;-76
2024/01/02 09:48:58;;;;;;;0.98;0.47;;;;;;;10.00;58.64;99082.50;4953309;28;20529;-76
2024/01/02 09:51:40;;;;;;;0.45;0.43;;;;;;;10.00;58.36;99081.66;4972171;28;20138;-76
2024/01/02 09:54:22;;;;;;;0.63;0.40;;;;;;;9.99;58.72;99075.34;4959651;28;20043;-76
2024/01/02 09:56:59;;;;;;;1.13;0.57;;;;;;;10.00;58.55;99074.31;4964785;28;20418;-76
2024/01/02 09:59:42;;;;;;;0.20;0.20;;;;;;;10.04;58.74;99070.22;4965586;28;20127;-76
2024/01/02 10:02:37;;;;;;;0.52;0.30;;;;;;;10.04;58.73;99061.16;4980530;28;20370;-76
2024/01/02 10:05:17;;;;;;;0.82;0.30;;;;;;;10.05;58.15;99060.13;4948518;28;20043;-76
2024/01/02 10:08:17;;;;;;;0.65;0.25;;;;;;;10.04;58.57;99061.16;4977569;28;20443;-76
2024/01/02 10:10:58;;;;;;;0.60;0.32;;;;;;;10.08;58.35;99057.03;4951107;28;20043;-76
2024/01/02 10:13:33;;;;;;;0.55;0.30;;;;;;;10.09;57.75;99058.75;4964274;28;20484;-76
2024/01/02 10:16:09;;;;;;;0.22;0.22;;;;;;;10.09;57.79;99054.13;4977498;28;20051;-76
2024/01/02 10:18:53;;;;;;;0.38;0.20;;;;;;;10.11;57.72;99063.03;4963233;28;20038;-76
2024/01/02 10:21:29;;;;;;;0.30;0.30;;;;;;;10.12;57.58;99055.66;4954578;28;20113;-77
2024/01/02 10:24:12;;;;;;;0.30;0.20;;;;;;;10.13;57.78;99055.50;4963447;28;20533;-77
2024/01/02 10:26:49;;;;;;;0.93;0.38;;;;;;;10.12;57.36;99051.06;4941387;28;20050;-76
2024/01/02 10:29:28;;;;;;;0.32;0.20;;;;;;;10.14;57.40;99051.75;4971443;28;20045;-76
2024/01/02 10:32:04;;;;;;;0.20;0.20;;;;;;;10.16;57.41;99037.88;4976072;28;20510;-76
2024/01/02 10:34:37;;;;;;;0.20;0.20;;;;;;;10.18;57.80;99050.34;4962171;28;20566;-76
2024/01/02 10:37:07;;;;;;;0.50;0.20;;;;;;;10.18;57.60;99039.41;4984742;28;20042;-76
2024/01/02 10:39:44;;;;;;;0.20;0.20;;;;;;;10.22;57.79;99045.41;4981008;28;20062;-75
2024/01/02 10:42:28;;;;;;;0.60;0.20;;;;;;;10.21;57.18;99047.28;4962091;28;20130;-76
2024/01/02 10:45:10;;;;;;;0.20;0.20;;;;;;;10.22;57.40;99043.53;4954332;28;20054;-76
2024/01/02 10:47:52;;;;;;;0.43;0.15;;;;;;;10.22;56.91;99048.13;4952672;28;20074;-76
2024/01/02 10:50:30;;;;;;;0.47;0.20;;;;;;;10.23;57.24;99033.44;4966906;28;20050;-76
2024/01/02 10:53:06;;;;;;;0.40;0.10;;;;;;;10.24;57.46;99044.16;4977525;28;20047;-76
2024/01/02 10:55:48;;;;;;;0.30;0.17;;;;;;;10.28;57.22;99043.81;4977021;28;20499;-76
2024/01/02 10:58:21;;;;;;;0.32;0.22;;;;;;;10.27;57.30;99039.38;4989595;28;20074;-76
2024/01/02 11:00:55;;;;;;;0.65;0.40;;;;;;;10.27;56.57;99037.50;4981698;28;20045;-76
2024/01/02 11:03:28;;;;;;;0.43;0.30;;;;;;;10.28;57.01;99025.53;4975395;28;20459;-77
2024/01/02 11:06:05;;;;;;;3.13;1.33;;;;;;;10.30;56.45;99023.50;4982540;28;20553;-76
2024/01/02 11:08:48;;;;;;;1.67;0.80;;;;;;;10.31;56.56;99017.00;4974329;28;20076;-75
2024/01/02 11:11:19;;;;;;;1.42;0.52;;;;;;;10.31;56.50;99013.41;4967568;28;20053;-76
2024/01/02 11:13:50;;;;;;;1.75;0.60;;;;;;;10.31;56.58;99019.72;4978742;28;20047;-76
2024/01/02 11:16:21;;;;;;;1.05;0.50;;;;;;;10.33;56.97;99005.84;4984196;28;20048;-74
2024/01/02 11:18:51;;;;;;;1.13;0.57;;;;;;;10.34;56.85;99002.94;4973969;28;20522;-76
2024/01/02 11:21:29;;;;;;;1.02;0.60;;;;;;;10.35;56.47;98988.25;4972948;28;20135;-76
2024/01/02 11:24:02;;;;;;;1.13;0.55;;;;;;;10.35;56.75;98996.47;4977542;28;20043;-77
2024/01/02 11:26:38;;;;;;;0.82;0.45;;;;;;;10.34;56.47;98999.38;4973022;28;20063;-76
2024/01/02 11:29:09;;;;;;;0.82;0.45;;;;;;;10.34;56.40;98994.75;4973479;28;20050;-76
2024/01/02 11:31:39;;;;;;;0.93;0.47;;;;;;;10.35;56.31;98996.47;4977359;28;20050;-76
2024/01/02 11:34:31;;;;;;;0.77;0.38;;;;;;;10.37;56.50;98988.09;4965891;28;20038;-76
2024/01/02 11:37:12;;;;;;;0.40;0.30;;;;;;;10.34;56.79;98992.00;4964137;28;20059;-76
2024/01/02 11:39:52;;;;;;;0.70;0.30;;;;;;;10.35;56.88;98987.41;4972499;28;20438;-76
2024/01/02 11:42:30;;;;;;;1.00;0.32;;;;;;;10.35;56.43;98987.41;4976028;28;20046;-74
2024/01/02 11:45:08;;;;;;;0.45;0.30;;;;;;;10.33;56.92;98982.09;4972644;28;20472;-77
2024/01/02 11:47:43;;;;;;;0.50;0.40;;;;;;;10.30;56.16;98968.81;4955701;28;20130;-76
2024/01/02 11:50:15;;;;;;;0.65;0.40;;;;;;;10.28;56.31;98970.88;4960839;28;20055;-76
2024/01/02 11:52:55;;;;;;;0.30;0.20;;;;;;;10.25;56.10;98971.22;4952715;28;20066;-76
2024/01/02 11:55:33;;;;;;;0.30;0.30;;;;;;;10.17;56.29;98961.16;4968235;28;20128;-77